Time;durP1;ratioP1;P1;durP2;ratioP2;P2;SDS_P1;SDS_P2;PMS_P1;PMS_P2;Temp;Humidity;BMP_temperature;BMP_pressure;BME280_temperature;BME280_humidity;BME280_pressure;Samples;Min_cycle;Max_cycle;Signal;HPM_P1;HPM_P2
2023/02/06 00:01:29;;;;;;;;;;;;;;;1.91;67.49;94206.44;2051123;70;20094;-73
2023/02/06 00:03:55;;;;;;;;;;;;;;;2.02;66.31;94205.59;2051827;70;20503;-76
2023/02/06 00:06:20;;;;;;;;;;;;;;;2.01;67.29;94204.81;2051745;70;20043;-76
2023/02/06 00:08:46;;;;;;;;;;;;;;;2.03;67.96;94207.09;2051826;70;20422;-76
2023/02/06 00:11:12;;;;;;;;;;;;;;;1.96;67.85;94205.63;2051927;70;20494;-73
2023/02/06 00:13:37;;;;;;;;;;;;;;;1.96;67.29;94202.84;2051749;70;20509;-75
2023/02/06 00:16:03;;;;;;;;;;;;;;;2.07;66.90;94201.28;2051763;70;20043;-74
2023/02/06 00:18:29;;;;;;;;;;;;;;;2.02;67.58;94205.59;2051683;70;20118;-73
2023/02/06 00:20:54;;;;;;;;;;;;;;;2.03;67.51;94199.53;2051725;70;20053;-73
2023/02/06 00:23:20;;;;;;;;;;;;;;;2.01;67.87;94207.59;2051700;70;20050;-73
2023/02/06 00:25:45;;;;;;;;;;;;;;;1.99;67.47;94214.97;2051806;70;20499;-76
2023/02/06 00:28:10;;;;;;;;;;;;;;;2.02;67.60;94214.69;2051659;70;20051;-73
2023/02/06 00:30:37;;;;;;;;;;;;;;;2.05;67.25;94215.66;2051614;70;20046;-72
2023/02/06 00:33:03;;;;;;;;;;;;;;;2.01;67.39;94218.72;2051719;70;20475;-74
2023/02/06 00:35:28;;;;;;;;;;;;;;;2.01;67.17;94220.75;2048454;70;20054;-76
2023/02/06 00:37:53;;;;;;;;;;;;;;;2.05;66.95;94221.22;2047782;70;20093;-75
2023/02/06 00:40:19;;;;;;;;;;;;;;;2.03;67.01;94221.75;2047924;70;20479;-77
2023/02/06 00:42:44;;;;;;;;;;;;;;;2.04;66.86;94219.72;2047847;70;20047;-75
2023/02/06 00:45:11;;;;;;;;;;;;;;;1.96;67.00;94227.84;2047910;70;20109;-75
2023/02/06 00:47:36;;;;;;;;;;;;;;;1.38;69.96;94227.28;2047876;70;20561;-77
2023/02/06 00:50:02;;;;;;;;;;;;;;;1.58;69.76;94226.91;2048403;70;20039;-73
2023/02/06 00:52:28;;;;;;;;;;;;;;;1.82;68.35;94223.44;2047879;70;20059;-75
2023/02/06 00:54:53;;;;;;;;;;;;;;;1.90;68.30;94221.59;2047024;70;20067;-76
2023/02/06 00:57:19;;;;;;;;;;;;;;;1.90;68.19;94227.16;2048059;70;20045;-77
2023/02/06 00:59:44;;;;;;;;;;;;;;;1.87;68.47;94228.19;2050142;70;20175;-73
2023/02/06 01:02:10;;;;;;;;;;;;;;;1.94;68.05;94230.41;2049922;70;20141;-76
2023/02/06 01:04:35;;;;;;;;;;;;;;;1.96;67.56;94241.75;2047550;70;20066;-75
2023/02/06 01:07:00;;;;;;;;;;;;;;;2.00;67.71;94247.78;2048181;70;20046;-77
2023/02/06 01:09:29;;;;;;;;;;;;;;;1.90;68.53;94256.97;2047861;70;20563;-73
2023/02/06 01:11:55;;;;;;;;;;;;;;;1.77;69.01;94252.75;2048360;70;20054;-74
2023/02/06 01:14:20;;;;;;;;;;;;;;;1.57;70.66;94250.38;2048016;70;20407;-74
2023/02/06 01:16:45;;;;;;;;;;;;;;;1.77;69.32;94258.31;2045194;70;20135;-74
2023/02/06 01:19:11;;;;;;;;;;;;;;;1.79;69.72;94255.03;2047788;70;20089;-77
2023/02/06 01:21:36;;;;;;;;;;;;;;;1.71;68.81;94257.59;2050477;70;20127;-75
2023/02/06 01:24:02;;;;;;;;;;;;;;;1.78;68.63;94245.16;2048395;70;20078;-77
2023/02/06 01:26:28;;;;;;;;;;;;;;;1.89;68.21;94245.09;2047839;70;20430;-78
2023/02/06 01:28:54;;;;;;;;;;;;;;;1.93;67.78;94250.38;2048331;70;20043;-74
2023/02/06 01:31:20;;;;;;;;;;;;;;;1.94;68.17;94247.06;2048363;70;20194;-74
2023/02/06 01:33:46;;;;;;;;;;;;;;;1.80;68.67;94248.19;2047817;70;20203;-77
2023/02/06 01:36:12;;;;;;;;;;;;;;;1.78;69.05;94245.16;2048299;70;20043;-76
2023/02/06 01:38:38;;;;;;;;;;;;;;;1.85;68.45;94244.63;2048350;70;20058;-74
2023/02/06 01:41:04;;;;;;;;;;;;;;;1.89;68.40;94238.78;2051116;70;20055;-74
2023/02/06 01:43:32;;;;;;;;;;;;;;;1.73;69.76;94249.50;2048252;70;20046;-73
2023/02/06 01:45:57;;;;;;;;;;;;;;;1.69;70.16;94254.56;2050575;70;20142;-74
2023/02/06 01:48:46;;;;;;;;;;;;;;;1.82;69.18;94242.13;2050864;70;20113;-74
2023/02/06 01:51:14;;;;;;;;;;;;;;;1.88;68.22;94245.59;2047971;70;20050;-74
2023/02/06 01:53:41;;;;;;;;;;;;;;;1.81;68.62;94238.59;2050974;70;20424;-78
2023/02/06 01:56:07;;;;;;;;;;;;;;;1.64;69.58;94232.41;2050886;70;20116;-74
2023/02/06 01:58:39;;;;;;;;;;;;;;;1.83;68.20;94233.25;2048242;70;20059;-77
2023/02/06 02:01:05;;;;;;;;;;;;;;;1.74;68.97;94231.59;2050608;70;20049;-74
2023/02/06 02:03:33;;;;;;;;;;;;;;;1.68;69.09;94227.31;2051204;70;20062;-75
2023/02/06 02:06:05;;;;;;;;;;;;;;;1.68;69.60;94224.56;2051548;70;20063;-74
2023/02/06 02:08:35;;;;;;;;;;;;;;;1.63;69.54;94223.31;2051485;70;20050;-74
2023/02/06 02:11:02;;;;;;;;;;;;;;;1.75;68.82;94218.44;2047125;70;20113;-73
2023/02/06 02:13:30;;;;;;;;;;;;;;;1.67;68.58;94211.94;2048105;70;20045;-75
2023/02/06 02:16:08;;;;;;;;;;;;;;;1.62;69.26;94227.38;2051382;70;20043;-79
2023/02/06 02:18:37;;;;;;;;;;;;;;;1.53;69.09;94222.13;2051521;70;20050;-78
2023/02/06 02:21:21;;;;;;;;;;;;;;;1.62;69.02;94219.03;2050461;70;20495;-73
2023/02/06 02:23:56;;;;;;;;;;;;;;;1.69;67.84;94218.47;2051199;70;20058;-74
2023/02/06 02:27:00;;;;;;;;;;;;;;;1.56;69.64;94221.13;2044588;70;20050;-76
2023/02/06 02:29:28;;;;;;;;;;;;;;;1.50;69.88;94225.94;2043871;70;20050;-77
2023/02/06 02:32:12;;;;;;;;;;;;;;;1.59;69.53;94222.84;2043090;70;20448;-77
2023/02/06 02:34:38;;;;;;;;;;;;;;;1.67;68.78;94225.81;2048340;70;20059;-75
2023/02/06 02:37:19;;;;;;;;;;;;;;;1.62;69.07;94218.28;2047843;70;20055;-73
2023/02/06 02:39:50;;;;;;;;;;;;;;;1.57;68.12;94214.28;2048088;70;20062;-74
2023/02/06 02:42:18;;;;;;;;;;;;;;;1.57;68.88;94205.22;2051271;70;20061;-73
2023/02/06 02:44:53;;;;;;;;;;;;;;;1.55;68.28;94218.84;2048053;70;20049;-75
2023/02/06 02:47:22;;;;;;;;;;;;;;;1.40;68.84;94219.94;2052323;70;20167;-73
2023/02/06 02:49:48;;;;;;;;;;;;;;;1.50;69.35;94229.47;2048711;70;20055;-75
2023/02/06 02:52:13;;;;;;;;;;;;;;;1.53;68.92;94227.69;2048171;70;20114;-75
2023/02/06 02:54:39;;;;;;;;;;;;;;;1.36;70.28;94235.38;2048091;70;20396;-73
2023/02/06 02:57:08;;;;;;;;;;;;;;;1.49;69.52;94227.22;2047904;70;20109;-78
2023/02/06 02:59:39;;;;;;;;;;;;;;;1.53;69.37;94224.91;2051333;70;20435;-77
2023/02/06 03:02:08;;;;;;;;;;;;;;;1.53;69.01;94220.13;2048056;70;20082;-78
2023/02/06 03:04:40;;;;;;;;;;;;;;;1.52;68.72;94224.16;2051390;70;20054;-73
2023/02/06 03:07:09;;;;;;;;;;;;;;;1.57;69.17;94224.66;2048105;70;20163;-75
2023/02/06 03:09:51;;;;;;;;;;;;;;;1.52;69.46;94226.94;2048088;70;20468;-73
2023/02/06 03:12:20;;;;;;;;;;;;;;;1.61;69.06;94231.44;2047906;70;20062;-74
2023/02/06 03:14:53;;;;;;;;;;;;;;;1.53;69.72;94228.44;2048064;70;20429;-73
2023/02/06 03:17:25;;;;;;;;;;;;;;;1.58;69.39;94229.66;2047953;70;20046;-76
2023/02/06 03:19:53;;;;;;;;;;;;;;;1.48;70.20;94236.81;2048052;70;20562;-77
2023/02/06 03:22:20;;;;;;;;;;;;;;;1.52;69.73;94235.25;2051399;70;20094;-76
2023/02/06 03:24:46;;;;;;;;;;;;;;;1.65;69.26;94237.47;2051387;70;20625;-73
2023/02/06 03:27:13;;;;;;;;;;;;;;;1.60;69.38;94232.66;2051233;70;20094;-74
2023/02/06 03:29:40;;;;;;;;;;;;;;;1.60;69.33;94229.91;2051261;70;20047;-74
2023/02/06 03:32:27;;;;;;;;;;;;;;;1.64;69.74;94232.41;2051353;70;20050;-72
2023/02/06 03:34:56;;;;;;;;;;;;;;;1.57;69.68;94227.41;2051311;70;20054;-73
2023/02/06 03:37:22;;;;;;;;;;;;;;;1.66;69.76;94218.78;2051422;70;20053;-73
2023/02/06 03:39:48;;;;;;;;;;;;;;;1.59;69.19;94225.63;2051870;70;20046;-72
2023/02/06 03:42:15;;;;;;;;;;;;;;;1.57;69.97;94214.28;2051536;70;20069;-74
2023/02/06 03:44:43;;;;;;;;;;;;;;;1.59;69.92;94214.50;2051763;70;20046;-73
2023/02/06 03:47:09;;;;;;;;;;;;;;;1.63;69.12;94228.88;2048248;70;20043;-73
2023/02/06 03:49:37;;;;;;;;;;;;;;;1.63;69.32;94220.53;2051507;70;20079;-73
2023/02/06 03:52:04;;;;;;;;;;;;;;;1.60;70.26;94227.13;2051559;70;20135;-73
2023/02/06 03:54:29;;;;;;;;;;;;;;;1.49;70.55;94235.53;2051708;70;20067;-74
2023/02/06 03:56:56;;;;;;;;;;;;;;;1.60;70.15;94232.66;2051709;70;20046;-78
2023/02/06 03:59:22;;;;;;;;;;;;;;;1.52;70.14;94240.06;2051588;70;20046;-74
2023/02/06 04:01:50;;;;;;;;;;;;;;;1.38;71.08;94247.47;2051629;70;20065;-74
2023/02/06 04:04:20;;;;;;;;;;;;;;;1.35;71.69;94245.72;2051572;70;20495;-77
2023/02/06 04:06:46;;;;;;;;;;;;;;;1.44;71.49;94255.75;2048454;70;20039;-77
2023/02/06 04:09:11;;;;;;;;;;;;;;;1.58;70.65;94257.44;2051777;70;20090;-77
2023/02/06 04:11:36;;;;;;;;;;;;;;;1.57;70.29;94255.94;2051666;70;20070;-73
2023/02/06 04:14:02;;;;;;;;;;;;;;;1.53;70.74;94250.66;2051612;70;20043;-75
2023/02/06 04:16:27;;;;;;;;;;;;;;;1.49;71.08;94246.63;2051704;70;20048;-73
2023/02/06 04:18:53;;;;;;;;;;;;;;;1.60;70.72;94248.56;2051637;70;20046;-76
2023/02/06 04:21:18;;;;;;;;;;;;;;;1.61;70.42;94247.34;2051695;70;20499;-77
2023/02/06 04:23:44;;;;;;;;;;;;;;;1.65;70.53;94228.34;2051744;70;20487;-74
2023/02/06 04:26:09;;;;;;;;;;;;;;;1.67;69.63;94228.59;2051807;70;20054;-74
2023/02/06 04:28:35;;;;;;;;;;;;;;;1.58;69.44;94234.47;2051798;70;20566;-75
2023/02/06 04:31:00;;;;;;;;;;;;;;;1.52;69.45;94240.81;2051589;70;20063;-74
2023/02/06 04:33:26;;;;;;;;;;;;;;;1.54;69.78;94243.06;2048494;70;20053;-78
2023/02/06 04:35:51;;;;;;;;;;;;;;;1.16;71.51;94244.81;2051715;70;20038;-75
2023/02/06 04:38:17;;;;;;;;;;;;;;;1.42;70.94;94250.72;2051618;70;20092;-78
2023/02/06 04:40:42;;;;;;;;;;;;;;;1.48;69.99;94251.44;2051653;70;20046;-76
2023/02/06 04:43:08;;;;;;;;;;;;;;;1.51;70.42;94250.41;2051488;70;20051;-74
2023/02/06 04:45:34;;;;;;;;;;;;;;;1.55;70.20;94257.69;2051759;70;20472;-73
2023/02/06 04:48:00;;;;;;;;;;;;;;;1.47;70.61;94251.97;2051679;70;20054;-74
2023/02/06 04:50:30;;;;;;;;;;;;;;;1.49;70.44;94258.50;2051831;70;20046;-74
2023/02/06 04:52:56;;;;;;;;;;;;;;;1.47;70.62;94247.16;2051720;70;20042;-73
2023/02/06 04:55:22;;;;;;;;;;;;;;;1.49;70.15;94250.16;2051571;70;20047;-78
2023/02/06 04:57:48;;;;;;;;;;;;;;;1.53;70.60;94252.66;2051543;70;20047;-78
2023/02/06 05:00:15;;;;;;;;;;;;;;;1.52;70.07;94243.59;2051726;70;20114;-76
2023/02/06 05:02:41;;;;;;;;;;;;;;;1.53;69.75;94249.91;2051181;70;20082;-76
2023/02/06 05:05:07;;;;;;;;;;;;;;;1.53;70.18;94258.22;2051885;70;20154;-75
2023/02/06 05:07:33;;;;;;;;;;;;;;;1.45;70.67;94263.56;2051710;70;20046;-75
2023/02/06 05:09:59;;;;;;;;;;;;;;;1.49;70.25;94260.50;2051904;70;20524;-77
2023/02/06 05:12:24;;;;;;;;;;;;;;;1.43;70.98;94257.03;2048404;70;20062;-77
2023/02/06 05:14:50;;;;;;;;;;;;;;;1.45;70.54;94254.47;2051707;70;20316;-78
2023/02/06 05:17:16;;;;;;;;;;;;;;;1.29;71.01;94233.16;2051796;70;20049;-75
2023/02/06 05:19:41;;;;;;;;;;;;;;;1.52;70.37;94249.16;2051697;70;20117;-74
2023/02/06 05:22:06;;;;;;;;;;;;;;;1.46;70.25;94256.72;2051827;70;20165;-76
2023/02/06 05:24:32;;;;;;;;;;;;;;;1.46;70.91;94245.63;2048567;70;20038;-78
2023/02/06 05:26:57;;;;;;;;;;;;;;;1.38;70.60;94253.03;2051738;70;20422;-74
2023/02/06 05:29:24;;;;;;;;;;;;;;;1.45;70.91;94257.25;2051787;70;20083;-74
2023/02/06 05:31:50;;;;;;;;;;;;;;;1.53;70.33;94255.44;2051679;70;20085;-74
2023/02/06 05:34:15;;;;;;;;;;;;;;;1.57;70.35;94258.72;2051704;70;20082;-77
2023/02/06 05:36:41;;;;;;;;;;;;;;;1.64;69.45;94260.16;2051579;70;20126;-74
2023/02/06 05:39:06;;;;;;;;;;;;;;;1.51;69.84;94252.41;2048397;70;20136;-79
2023/02/06 05:41:31;;;;;;;;;;;;;;;1.51;69.86;94255.19;2051634;70;20085;-78
2023/02/06 05:43:57;;;;;;;;;;;;;;;1.52;70.22;94251.16;2051560;70;20050;-77
2023/02/06 05:46:22;;;;;;;;;;;;;;;1.42;70.46;94258.28;2051718;70;20411;-75
2023/02/06 05:48:48;;;;;;;;;;;;;;;1.47;70.05;94249.19;2051743;70;20141;-75
2023/02/06 05:51:13;;;;;;;;;;;;;;;1.43;70.26;94246.69;2051442;70;20047;-78
2023/02/06 05:53:39;;;;;;;;;;;;;;;1.46;70.24;94242.84;2051343;70;20483;-77
2023/02/06 05:56:04;;;;;;;;;;;;;;;1.50;70.05;94242.59;2051426;70;20166;-78
2023/02/06 05:58:30;;;;;;;;;;;;;;;1.51;70.21;94236.53;2051256;70;20129;-75
2023/02/06 06:00:56;;;;;;;;;;;;;;;1.54;70.34;94248.63;2051386;70;20530;-75
2023/02/06 06:03:21;;;;;;;;;;;;;;;1.49;70.43;94250.16;2051389;70;20054;-76
2023/02/06 06:05:46;;;;;;;;;;;;;;;1.45;69.84;94246.16;2051409;70;20062;-75
2023/02/06 06:08:12;;;;;;;;;;;;;;;1.48;69.90;94245.88;2051393;70;20042;-75
2023/02/06 06:10:37;;;;;;;;;;;;;;;1.35;70.07;94242.19;2051489;70;20533;-75
2023/02/06 06:13:03;;;;;;;;;;;;;;;1.20;71.20;94236.97;2051411;70;20050;-78
2023/02/06 06:15:29;;;;;;;;;;;;;;;1.04;72.70;94246.13;2051614;70;20042;-77
2023/02/06 06:17:54;;;;;;;;;;;;;;;1.22;71.19;94242.75;2051481;70;20050;-73
2023/02/06 06:20:19;;;;;;;;;;;;;;;1.17;71.44;94240.78;2051539;70;20522;-79
2023/02/06 06:22:45;;;;;;;;;;;;;;;1.22;71.30;94237.97;2051568;70;20391;-72
2023/02/06 06:25:10;;;;;;;;;;;;;;;1.26;71.51;94237.69;2051649;70;20049;-77
2023/02/06 06:27:36;;;;;;;;;;;;;;;1.19;71.24;94229.91;2051244;70;20114;-75
2023/02/06 06:30:01;;;;;;;;;;;;;;;1.14;70.98;94227.91;2051412;70;20051;-75
2023/02/06 06:32:28;;;;;;;;;;;;;;;1.12;71.96;94228.44;2051489;70;20047;-75
2023/02/06 06:34:53;;;;;;;;;;;;;;;1.14;70.41;94233.47;2051515;70;20038;-75
2023/02/06 06:37:19;;;;;;;;;;;;;;;0.94;71.39;94210.38;2051380;70;20482;-78
2023/02/06 06:39:44;;;;;;;;;;;;;;;1.17;71.28;94224.88;2048215;70;20487;-76
2023/02/06 06:42:12;;;;;;;;;;;;;;;1.09;71.46;94226.69;2051260;70;20503;-76
2023/02/06 06:44:37;;;;;;;;;;;;;;;1.13;71.58;94221.63;2051535;70;20570;-75
2023/02/06 06:47:03;;;;;;;;;;;;;;;1.08;71.89;94227.19;2051520;70;20041;-77
2023/02/06 06:49:28;;;;;;;;;;;;;;;1.06;71.73;94222.16;2051439;70;20161;-78
2023/02/06 06:51:53;;;;;;;;;;;;;;;1.03;71.12;94225.97;2051445;70;20455;-79
2023/02/06 06:54:21;;;;;;;;;;;;;;;1.11;71.10;94220.63;2051295;70;20050;-79
2023/02/06 06:56:46;;;;;;;;;;;;;;;0.98;70.88;94229.50;2051350;70;20161;-75
2023/02/06 06:59:12;;;;;;;;;;;;;;;0.97;71.45;94239.84;2051080;70;20135;-75
2023/02/06 07:01:37;;;;;;;;;;;;;;;0.91;70.60;94224.50;2051436;70;20078;-75
2023/02/06 07:04:03;;;;;;;;;;;;;;;0.75;70.99;94232.38;2051273;70;20055;-74
2023/02/06 07:06:28;;;;;;;;;;;;;;;0.76;71.98;94228.34;2051224;70;20122;-75
2023/02/06 07:08:53;;;;;;;;;;;;;;;0.77;71.18;94237.41;2051332;70;20497;-75
2023/02/06 07:11:19;;;;;;;;;;;;;;;0.81;72.12;94231.59;2051177;70;20471;-75
2023/02/06 07:13:45;;;;;;;;;;;;;;;0.86;71.84;94234.34;2051104;70;20049;-78
2023/02/06 07:16:11;;;;;;;;;;;;;;;0.86;71.40;94239.13;2051275;70;20538;-77
2023/02/06 07:18:38;;;;;;;;;;;;;;;0.77;72.33;94237.41;2051210;70;20058;-78
2023/02/06 07:21:04;;;;;;;;;;;;;;;0.76;71.88;94236.66;2051284;70;20196;-78
2023/02/06 07:23:30;;;;;;;;;;;;;;;0.83;72.05;94226.31;2051235;70;20046;-77
2023/02/06 07:26:01;;;;;;;;;;;;;;;0.77;70.97;94240.94;2051354;70;20050;-75
2023/02/06 07:28:27;;;;;;;;;;;;;;;0.74;70.95;94255.06;2048084;70;20085;-75
2023/02/06 07:30:52;;;;;;;;;;;;;;;0.65;71.62;94242.25;2051265;70;20081;-74
2023/02/06 07:33:17;;;;;;;;;;;;;;;0.58;71.81;94242.75;2051352;70;20082;-80
2023/02/06 07:35:43;;;;;;;;;;;;;;;0.71;72.12;94237.44;2051274;70;20476;-75
2023/02/06 07:38:08;;;;;;;;;;;;;;;0.71;71.55;94234.66;2051183;70;20058;-75
2023/02/06 07:40:34;;;;;;;;;;;;;;;0.65;71.42;94220.06;2051352;70;20042;-75
2023/02/06 07:43:00;;;;;;;;;;;;;;;0.68;72.02;94224.59;2051282;70;20051;-75
2023/02/06 07:45:32;;;;;;;;;;;;;;;0.49;73.07;94224.41;2048109;70;20051;-75
2023/02/06 07:47:57;;;;;;;;;;;;;;;0.67;72.12;94214.00;2051497;70;20405;-75
2023/02/06 07:50:23;;;;;;;;;;;;;;;0.69;71.61;94217.78;2051451;70;20067;-74
2023/02/06 07:52:48;;;;;;;;;;;;;;;0.77;70.91;94227.06;2051443;70;20052;-75
2023/02/06 07:55:14;;;;;;;;;;;;;;;0.76;71.35;94230.34;2051332;70;20050;-74
2023/02/06 07:57:39;;;;;;;;;;;;;;;0.79;71.58;94223.06;2051220;70;20553;-74
2023/02/06 08:00:05;;;;;;;;;;;;;;;0.76;71.66;94220.03;2051428;70;20440;-74
2023/02/06 08:02:37;;;;;;;;;;;;;;;0.85;71.22;94207.13;2051326;70;20070;-75
2023/02/06 08:05:03;;;;;;;;;;;;;;;0.85;71.02;94207.88;2051273;70;20042;-75
2023/02/06 08:07:28;;;;;;;;;;;;;;;0.79;70.78;94198.09;2051585;70;20047;-75
2023/02/06 08:09:53;;;;;;;;;;;;;;;0.75;72.18;94190.03;2051327;70;20054;-77
2023/02/06 08:12:19;;;;;;;;;;;;;;;0.71;71.28;94201.41;2051165;70;20038;-75
2023/02/06 08:14:44;;;;;;;;;;;;;;;0.75;71.43;94193.56;2051202;70;20035;-77
2023/02/06 08:17:11;;;;;;;;;;;;;;;0.75;71.48;94190.78;2051185;70;20043;-75
2023/02/06 08:19:36;;;;;;;;;;;;;;;0.73;71.46;94198.09;2051282;70;20117;-76
2023/02/06 08:22:02;;;;;;;;;;;;;;;0.57;72.06;94202.47;2051318;70;20067;-77
2023/02/06 08:24:27;;;;;;;;;;;;;;;0.80;71.57;94202.38;2051758;70;20058;-77
2023/02/06 08:26:53;;;;;;;;;;;;;;;0.90;71.27;94204.34;2052010;70;20046;-76
2023/02/06 08:29:18;;;;;;;;;;;;;;;1.11;70.91;94209.53;2051648;70;20046;-75
2023/02/06 08:31:44;;;;;;;;;;;;;;;1.16;70.44;94211.53;2051786;70;20042;-75
2023/02/06 08:34:11;;;;;;;;;;;;;;;1.19;70.41;94211.25;2051977;70;20043;-75
2023/02/06 08:36:36;;;;;;;;;;;;;;;1.25;69.64;94214.75;2051715;70;20105;-75
2023/02/06 08:39:03;;;;;;;;;;;;;;;1.53;69.67;94211.03;2051644;70;20121;-75
2023/02/06 08:41:46;;;;;;;;;;;;;;;2.11;70.77;94207.28;2051994;70;20142;-77
2023/02/06 08:44:13;;;;;;;;;;;;;;;2.45;69.35;94202.91;2051662;70;20122;-78
2023/02/06 08:46:39;;;;;;;;;;;;;;;2.76;70.21;94203.56;2048482;70;20042;-77
2023/02/06 08:49:05;;;;;;;;;;;;;;;2.72;70.12;94208.69;2051763;70;20109;-77
2023/02/06 08:51:32;;;;;;;;;;;;;;;3.25;68.46;94218.13;2051634;70;20050;-76
2023/02/06 08:53:58;;;;;;;;;;;;;;;3.55;65.52;94209.59;2051659;70;20102;-79
2023/02/06 08:56:24;;;;;;;;;;;;;;;4.02;64.29;94211.91;2048375;70;20050;-77
2023/02/06 08:58:50;;;;;;;;;;;;;;;4.27;63.43;94208.97;2051595;70;20430;-77
2023/02/06 09:01:15;;;;;;;;;;;;;;;3.86;59.92;94201.06;2051757;70;20111;-77
2023/02/06 09:03:41;;;;;;;;;;;;;;;4.38;59.90;94203.19;2051735;70;20145;-78
2023/02/06 09:06:06;;;;;;;;;;;;;;;4.71;60.06;94199.03;2048487;70;20529;-77
2023/02/06 09:08:33;;;;;;;;;;;;;;;4.67;58.35;94195.06;2048251;70;20137;-78
2023/02/06 09:11:05;;;;;;;;;;;;;;;4.90;59.75;94195.38;2051724;70;20057;-82
2023/02/06 09:13:31;;;;;;;;;;;;;;;4.72;56.66;94196.97;2051515;70;20039;-77
2023/02/06 09:15:56;;;;;;;;;;;;;;;5.64;58.27;94195.34;2048285;70;20077;-80
2023/02/06 09:18:22;;;;;;;;;;;;;;;5.89;56.23;94201.34;2051505;70;20050;-77
2023/02/06 09:20:48;;;;;;;;;;;;;;;6.17;55.12;94193.06;2051698;70;20066;-75
2023/02/06 09:23:18;;;;;;;;;;;;;;;6.41;53.87;94205.19;2051458;70;20054;-77
2023/02/06 09:25:44;;;;;;;;;;;;;;;5.99;51.05;94203.16;2051508;70;20050;-79
2023/02/06 09:28:10;;;;;;;;;;;;;;;6.10;49.84;94200.09;2051407;70;20047;-76
2023/02/06 09:30:35;;;;;;;;;;;;;;;6.92;50.61;94199.78;2051543;70;20061;-75
2023/02/06 09:33:00;;;;;;;;;;;;;;;6.81;48.87;94200.06;2051493;70;20472;-75
2023/02/06 09:35:26;;;;;;;;;;;;;;;7.41;49.21;94203.75;2051271;70;20042;-77
2023/02/06 09:37:51;;;;;;;;;;;;;;;6.63;46.41;94201.81;2051396;70;20133;-78
2023/02/06 09:40:20;;;;;;;;;;;;;;;7.05;48.08;94188.44;2051489;70;20062;-76
2023/02/06 09:42:46;;;;;;;;;;;;;;;7.78;47.39;94197.50;2051371;70;20128;-77
2023/02/06 09:45:13;;;;;;;;;;;;;;;7.26;48.46;94190.41;2051614;70;20051;-77
2023/02/06 09:47:44;;;;;;;;;;;;;;;7.93;45.97;94199.63;2051471;70;20127;-77
2023/02/06 09:50:12;;;;;;;;;;;;;;;8.83;46.05;94194.59;2051550;70;20094;-76
2023/02/06 09:52:44;;;;;;;;;;;;;;;8.69;44.68;94190.50;2051417;70;20602;-77
2023/02/06 09:55:09;;;;;;;;;;;;;;;8.45;45.60;94191.81;2051486;70;20074;-77
2023/02/06 09:57:35;;;;;;;;;;;;;;;8.58;45.29;94185.28;2051303;70;20082;-76
2023/02/06 10:00:20;;;;;;;;;;;;;;;8.49;43.27;94180.97;2051632;70;20086;-76
2023/02/06 10:02:55;;;;;;;;;;;;;;;8.52;43.59;94179.09;2051489;70;20137;-76
2023/02/06 10:05:21;;;;;;;;;;;;;;;8.54;43.77;94176.47;2051461;70;20072;-75
2023/02/06 10:08:05;;;;;;;;;;;;;;;8.61;41.75;94175.72;2051473;70;20392;-75
2023/02/06 10:10:33;;;;;;;;;;;;;;;9.44;42.98;94176.84;2051701;70;20082;-74
2023/02/06 10:13:08;;;;;;;;;;;;;;;8.02;43.49;94176.63;2051445;70;20059;-75
2023/02/06 10:15:41;;;;;;;;;;;;;;;7.88;43.71;94161.28;2051442;70;20093;-76
2023/02/06 10:18:20;;;;;;;;;;;;;;;7.92;44.16;94169.31;2051580;70;20042;-75
2023/02/06 10:20:49;;;;;;;;;;;;;;;9.33;43.57;94163.19;2051357;70;20141;-75
2023/02/06 10:23:14;;;;;;;;;;;;;;;9.64;42.74;94163.81;2051440;70;20042;-75
2023/02/06 10:26:01;;;;;;;;;;;;;;;9.09;43.86;94154.09;2051454;70;20073;-75
2023/02/06 10:28:29;;;;;;;;;;;;;;;10.78;41.26;94151.00;2051509;70;20117;-75
2023/02/06 10:30:54;;;;;;;;;;;;;;;10.52;40.54;94154.44;2051692;70;20047;-76
2023/02/06 10:33:25;;;;;;;;;;;;;;;9.68;42.04;94148.03;2051413;70;20046;-75
2023/02/06 10:35:58;;;;;;;;;;;;;;;8.98;41.37;94148.13;2051495;70;20050;-75
2023/02/06 10:38:26;;;;;;;;;;;;;;;10.15;41.30;94143.59;2051406;70;20046;-76
2023/02/06 10:41:05;;;;;;;;;;;;;;;9.25;42.32;94137.19;2051475;70;20054;-75
2023/02/06 10:43:39;;;;;;;;;;;;;;;10.67;42.13;94135.34;2051574;70;20057;-78
2023/02/06 10:46:12;;;;;;;;;;;;;;;10.74;41.14;94125.31;2051583;70;20135;-78
2023/02/06 10:48:41;;;;;;;;;;;;;;;10.90;40.83;94106.94;2051595;70;20066;-77
2023/02/06 10:51:16;;;;;;;;;;;;;;;11.09;40.52;94103.53;2051433;70;20057;-77
2023/02/06 10:53:47;;;;;;;;;;;;;;;12.95;37.90;94096.03;2051340;70;20042;-78
2023/02/06 10:56:16;;;;;;;;;;;;;;;11.07;37.95;94094.91;2051524;70;20402;-78
2023/02/06 10:58:44;;;;;;;;;;;;;;;11.65;38.43;94083.28;2051316;70;20053;-78
2023/02/06 11:01:11;;;;;;;;;;;;;;;11.23;37.66;94080.66;2051379;70;20078;-77
2023/02/06 11:03:42;;;;;;;;;;;;;;;13.96;36.69;94073.59;2051342;70;20097;-82
2023/02/06 11:06:09;;;;;;;;;;;;;;;14.32;33.35;94073.91;2051611;70;20105;-79
2023/02/06 11:08:40;;;;;;;;;;;;;;;14.90;33.97;94059.44;2051465;70;20488;-79
2023/02/06 11:11:32;;;;;;;;;;;;;;;14.95;33.04;94049.84;2051377;70;20129;-79
2023/02/06 11:14:00;;;;;;;;;;;;;;;17.73;28.89;94054.03;2051029;70;20066;-78
2023/02/06 11:16:30;;;;;;;;;;;;;;;16.78;29.14;94052.09;2048303;70;20156;-78
2023/02/06 11:18:58;;;;;;;;;;;;;;;18.52;27.29;94051.13;2048243;70;20055;-79
2023/02/06 11:21:42;;;;;;;;;;;;;;;17.82;24.70;94034.50;2051500;70;20050;-81
2023/02/06 11:24:13;;;;;;;;;;;;;;;19.13;24.54;94030.72;2051262;70;20066;-80
2023/02/06 11:26:45;;;;;;;;;;;;;;;20.44;24.67;94021.25;2048103;70;20051;-79
2023/02/06 11:29:18;;;;;;;;;;;;;;;19.09;22.26;94011.25;2051692;70;20141;-78
2023/02/06 11:31:55;;;;;;;;;;;;;;;17.52;23.67;94006.53;2051411;70;20135;-79
2023/02/06 11:34:23;;;;;;;;;;;;;;;19.14;23.76;94006.50;2051440;70;20076;-78
2023/02/06 11:36:54;;;;;;;;;;;;;;;19.82;22.73;94007.66;2051283;70;20043;-79
2023/02/06 11:39:29;;;;;;;;;;;;;;;19.85;22.70;93995.69;2051321;70;20149;-79
2023/02/06 11:41:55;;;;;;;;;;;;;;;22.93;20.52;94004.78;2051277;70;20046;-78
2023/02/06 11:44:23;;;;;;;;;;;;;;;22.31;20.15;93984.56;2051210;70;20113;-78
2023/02/06 11:46:49;;;;;;;;;;;;;;;20.20;22.12;93985.81;2051346;70;20433;-80
2023/02/06 11:49:17;;;;;;;;;;;;;;;19.70;20.65;93985.72;2051418;70;20511;-78
2023/02/06 11:51:53;;;;;;;;;;;;;;;21.92;21.45;93980.22;2051284;70;20050;-78
2023/02/06 11:54:18;;;;;;;;;;;;;;;21.96;20.04;93985.38;2051242;70;20042;-78
2023/02/06 11:56:53;;;;;;;;;;;;;;;23.51;19.58;93977.34;2051205;70;20046;-78
2023/02/06 11:59:21;;;;;;;;;;;;;;;24.40;17.16;93980.81;2048318;70;20123;-79
2023/02/06 12:01:47;;;;;;;;;;;;;;;24.61;18.17;93968.50;2051856;70;20047;-76
2023/02/06 12:04:25;;;;;;;;;;;;;;;26.09;17.47;93965.81;2051832;70;20112;-77
2023/02/06 12:06:57;;;;;;;;;;;;;;;26.25;18.39;93967.59;2052068;70;20503;-78
2023/02/06 12:09:23;;;;;;;;;;;;;;;25.73;17.33;93956.28;2048565;70;20476;-76
2023/02/06 12:11:53;;;;;;;;;;;;;;;26.48;17.11;93951.50;2051717;70;20467;-76
2023/02/06 12:14:19;;;;;;;;;;;;;;;26.85;16.54;93950.13;2051535;70;20515;-77
2023/02/06 12:16:45;;;;;;;;;;;;;;;26.98;16.75;93948.91;2051933;70;20051;-76
2023/02/06 12:19:15;;;;;;;;;;;;;;;27.55;16.66;93938.38;2052964;70;20381;-77
2023/02/06 12:21:46;;;;;;;;;;;;;;;27.82;16.13;93935.94;2051677;70;20038;-78
2023/02/06 12:24:38;;;;;;;;;;;;;;;28.11;15.45;93929.13;2051680;70;20046;-77
2023/02/06 12:27:16;;;;;;;;;;;;;;;28.45;15.07;93922.38;2051406;70;20541;-77
2023/02/06 12:29:51;;;;;;;;;;;;;;;27.60;14.89;93928.34;2051633;70;20050;-78
2023/02/06 12:32:19;;;;;;;;;;;;;;;24.96;15.79;93926.22;2051728;70;20038;-76
2023/02/06 12:34:52;;;;;;;;;;;;;;;21.68;17.15;93916.97;2051635;70;20109;-77
2023/02/06 12:37:21;;;;;;;;;;;;;;;20.11;18.71;93915.38;2048354;70;20082;-76
2023/02/06 12:39:47;;;;;;;;;;;;;;;19.09;20.98;93904.94;2051609;70;20482;-77
2023/02/06 12:42:39;;;;;;;;;;;;;;;17.35;20.97;93900.94;2051427;70;20053;-78
2023/02/06 12:45:04;;;;;;;;;;;;;;;16.51;21.88;93896.25;2051229;70;20047;-77
2023/02/06 12:47:40;;;;;;;;;;;;;;;15.71;22.40;93896.47;2051562;70;20065;-78
2023/02/06 12:50:21;;;;;;;;;;;;;;;15.14;23.42;93885.19;2051599;70;20085;-80
2023/02/06 12:52:51;;;;;;;;;;;;;;;15.07;23.46;93879.72;2051069;70;20055;-80
2023/02/06 12:55:37;;;;;;;;;;;;;;;14.21;23.60;93862.91;2051501;70;20063;-80
2023/02/06 12:58:03;;;;;;;;;;;;;;;12.38;25.64;93863.03;2051357;70;20047;-80
2023/02/06 13:00:29;;;;;;;;;;;;;;;13.41;26.22;93859.66;2048210;70;20050;-80